sensor_id;sensor_type;location;lat;lon;timestamp;pressure;altitude;pressure_sealevel;temperature;humidity
24746;BME280;12845;52.042;6.838;2022-07-29T00:01:15;68700.38;;;17.38;62.80
24746;BME280;12845;52.042;6.838;2022-07-29T00:06:06;68695.94;;;17.36;62.96
24746;BME280;12845;52.042;6.838;2022-07-29T00:10:56;68696.03;;;17.29;63.10
24746;BME280;12845;52.042;6.838;2022-07-29T00:15:47;68684.97;;;17.24;63.27
24746;BME280;12845;52.042;6.838;2022-07-29T00:18:12;68687.47;;;17.22;63.30
24746;BME280;12845;52.042;6.838;2022-07-29T00:20:38;68686.91;;;17.21;63.63
24746;BME280;12845;52.042;6.838;2022-07-29T00:27:54;68677.78;;;17.13;63.74
24746;BME280;12845;52.042;6.838;2022-07-29T00:30:19;68674.09;;;17.14;63.93
24746;BME280;12845;52.042;6.838;2022-07-29T00:32:45;68672.41;;;17.13;64.21
24746;BME280;12845;52.042;6.838;2022-07-29T00:35:10;68682.75;;;17.15;63.84
24746;BME280;12845;52.042;6.838;2022-07-29T00:45:12;68659.84;;;17.02;64.47
24746;BME280;12845;52.042;6.838;2022-07-29T00:47:38;68674.38;;;17.10;65.22
24746;BME280;12845;52.042;6.838;2022-07-29T00:50:05;68669.78;;;17.06;64.43
24746;BME280;12845;52.042;6.838;2022-07-29T01:02:12;68645.13;;;16.81;65.04
24746;BME280;12845;52.042;6.838;2022-07-29T01:07:03;68633.28;;;16.73;65.49
24746;BME280;12845;52.042;6.838;2022-07-29T01:11:55;68628.13;;;16.68;65.51
24746;BME280;12845;52.042;6.838;2022-07-29T01:32:56;68594.28;;;16.43;66.30
24746;BME280;12845;52.042;6.838;2022-07-29T01:35:26;68600.22;;;16.43;66.17
24746;BME280;12845;52.042;6.838;2022-07-29T01:38:01;68593.13;;;16.42;66.33
24746;BME280;12845;52.042;6.838;2022-07-29T01:40:54;68600.78;;;16.44;66.14
24746;BME280;12845;52.042;6.838;2022-07-29T01:43:28;68588.25;;;16.33;66.47
24746;BME280;12845;52.042;6.838;2022-07-29T01:45:58;68588.25;;;16.33;66.59
24746;BME280;12845;52.042;6.838;2022-07-29T01:51:18;68583.69;;;16.29;66.74
24746;BME280;12845;52.042;6.838;2022-07-29T01:53:50;68582.53;;;16.28;66.93
24746;BME280;12845;52.042;6.838;2022-07-29T01:56:18;68578.56;;;16.24;67.18
24746;BME280;12845;52.042;6.838;2022-07-29T02:01:12;68567.47;;;16.19;67.25
24746;BME280;12845;52.042;6.838;2022-07-29T02:03:39;68562.03;;;16.09;67.75
24746;BME280;12845;52.042;6.838;2022-07-29T02:06:07;68558.34;;;16.11;67.92
24746;BME280;12845;52.042;6.838;2022-07-29T02:08:36;68556.09;;;16.09;67.72
24746;BME280;12845;52.042;6.838;2022-07-29T02:11:04;68553.81;;;16.07;67.97
24746;BME280;12845;52.042;6.838;2022-07-29T02:13:31;68557.22;;;16.10;67.84
24746;BME280;12845;52.042;6.838;2022-07-29T02:18:25;68552.34;;;16.00;67.97
24746;BME280;12845;52.042;6.838;2022-07-29T02:20:55;68553.88;;;15.99;68.01
24746;BME280;12845;52.042;6.838;2022-07-29T02:23:23;68546.63;;;15.95;68.32
24746;BME280;12845;52.042;6.838;2022-07-29T02:30:45;68536.38;;;15.86;68.80
24746;BME280;12845;52.042;6.838;2022-07-29T02:35:40;68528.97;;;15.79;69.23
24746;BME280;12845;52.042;6.838;2022-07-29T02:40:52;68523.84;;;15.75;69.51
24746;BME280;12845;52.042;6.838;2022-07-29T02:43:19;68521.34;;;15.77;69.44
24746;BME280;12845;52.042;6.838;2022-07-29T02:45:47;68521.56;;;15.73;69.44
24746;BME280;12845;52.042;6.838;2022-07-29T02:48:16;68519.88;;;15.71;69.40
24746;BME280;12845;52.042;6.838;2022-07-29T02:50:51;68520.44;;;15.72;69.73
24746;BME280;12845;52.042;6.838;2022-07-29T02:53:23;68515.53;;;15.63;69.94
24746;BME280;12845;52.042;6.838;2022-07-29T02:55:56;68505.59;;;15.58;69.77
24746;BME280;12845;52.042;6.838;2022-07-29T03:00:48;68514.13;;;15.66;69.82
24746;BME280;12845;52.042;6.838;2022-07-29T03:03:18;68506.16;;;15.59;70.19
24746;BME280;12845;52.042;6.838;2022-07-29T03:08:11;68511.28;;;15.64;70.35
24746;BME280;12845;52.042;6.838;2022-07-29T03:10:39;68496.81;;;15.55;70.19
24746;BME280;12845;52.042;6.838;2022-07-29T03:13:05;68509.56;;;15.62;69.97
24746;BME280;12845;52.042;6.838;2022-07-29T03:15:33;68511.28;;;15.64;69.79
24746;BME280;12845;52.042;6.838;2022-07-29T03:20:26;68504.84;;;15.55;70.14
24746;BME280;12845;52.042;6.838;2022-07-29T03:22:52;68499.88;;;15.53;70.17
24746;BME280;12845;52.042;6.838;2022-07-29T03:25:19;68507.88;;;15.61;69.81
24746;BME280;12845;52.042;6.838;2022-07-29T03:27:45;68509.00;;;15.62;70.07
24746;BME280;12845;52.042;6.838;2022-07-29T03:35:03;68501.03;;;15.54;70.25
24746;BME280;12845;52.042;6.838;2022-07-29T03:37:29;68502.56;;;15.53;70.20
24746;BME280;12845;52.042;6.838;2022-07-29T03:40:00;68485.41;;;15.45;70.40
24746;BME280;12845;52.042;6.838;2022-07-29T03:42:31;68475.97;;;15.32;71.11
24746;BME280;12845;52.042;6.838;2022-07-29T03:45:07;68481.66;;;15.37;70.62
24746;BME280;12845;52.042;6.838;2022-07-29T03:47:35;68474.84;;;15.31;71.03
24746;BME280;12845;52.042;6.838;2022-07-29T03:50:06;68466.13;;;15.21;71.68
24746;BME280;12845;52.042;6.838;2022-07-29T03:52:32;68464.34;;;15.26;71.48
24746;BME280;12845;52.042;6.838;2022-07-29T03:54:57;68485.09;;;15.40;71.02
24746;BME280;12845;52.042;6.838;2022-07-29T03:59:53;68476.94;;;15.30;71.36
24746;BME280;12845;52.042;6.838;2022-07-29T04:16:56;68455.47;;;15.14;73.16
24746;BME280;12845;52.042;6.838;2022-07-29T04:19:21;68454.31;;;15.12;73.36
24746;BME280;12845;52.042;6.838;2022-07-29T04:24:12;68449.53;;;15.13;73.88
24746;BME280;12845;52.042;6.838;2022-07-29T04:26:38;68460.34;;;15.23;73.75
24746;BME280;12845;52.042;6.838;2022-07-29T04:29:03;68466.13;;;15.21;73.36
24746;BME280;12845;52.042;6.838;2022-07-29T04:31:29;68458.88;;;15.17;73.58
24746;BME280;12845;52.042;6.838;2022-07-29T04:36:19;68444.06;;;15.03;73.94
24746;BME280;12845;52.042;6.838;2022-07-29T04:38:44;68453.19;;;15.11;73.97
24746;BME280;12845;52.042;6.838;2022-07-29T04:43:36;68454.31;;;15.12;73.68
24746;BME280;12845;52.042;6.838;2022-07-29T04:46:02;68457.75;;;15.16;73.47
24746;BME280;12845;52.042;6.838;2022-07-29T04:48:28;68464.56;;;15.22;73.31
24746;BME280;12845;52.042;6.838;2022-07-29T04:50:53;68468.00;;;15.25;73.54
24746;BME280;12845;52.042;6.838;2022-07-29T04:55:44;68464.56;;;15.22;73.62
24746;BME280;12845;52.042;6.838;2022-07-29T04:58:10;68466.13;;;15.21;73.64
24746;BME280;12845;52.042;6.838;2022-07-29T05:07:52;68466.69;;;15.21;73.50
24746;BME280;12845;52.042;6.838;2022-07-29T05:10:17;68474.84;;;15.31;73.54
24746;BME280;12845;52.042;6.838;2022-07-29T05:12:43;68472.38;;;15.26;73.59
24746;BME280;12845;52.042;6.838;2022-07-29T05:15:09;68474.50;;;15.26;73.44
24746;BME280;12845;52.042;6.838;2022-07-29T05:17:34;68461.50;;;15.24;73.91
24746;BME280;12845;52.042;6.838;2022-07-29T05:20:00;68465.16;;;15.22;73.67
24746;BME280;12845;52.042;6.838;2022-07-29T05:24:50;68477.69;;;15.33;74.37
24746;BME280;12845;52.042;6.838;2022-07-29T05:27:15;68470.03;;;15.31;74.35
24746;BME280;12845;52.042;6.838;2022-07-29T05:29:41;68477.09;;;15.33;74.70
24746;BME280;12845;52.042;6.838;2022-07-29T05:32:06;68486.78;;;15.42;75.27
24746;BME280;12845;52.042;6.838;2022-07-29T05:34:32;68480.28;;;15.41;74.98
24746;BME280;12845;52.042;6.838;2022-07-29T05:36:58;68477.44;;;15.38;76.04
24746;BME280;12845;52.042;6.838;2022-07-29T05:39:23;68485.66;;;15.41;76.62
24746;BME280;12845;52.042;6.838;2022-07-29T05:46:40;68475.16;;;15.36;75.60
24746;BME280;12845;52.042;6.838;2022-07-29T05:49:05;68477.69;;;15.33;75.51
24746;BME280;12845;52.042;6.838;2022-07-29T05:51:32;68482.06;;;15.35;76.76
24746;BME280;12845;52.042;6.838;2022-07-29T05:56:23;68476.31;;;15.37;76.89
24746;BME280;12845;52.042;6.838;2022-07-29T05:58:48;68481.66;;;15.37;76.70
24746;BME280;12845;52.042;6.838;2022-07-29T06:06:06;68471.16;;;15.32;78.71
24746;BME280;12845;52.042;6.838;2022-07-29T06:08:32;68472.56;;;15.29;77.92
24746;BME280;12845;52.042;6.838;2022-07-29T06:13:24;68461.16;;;15.19;78.82
24746;BME280;12845;52.042;6.838;2022-07-29T06:15:49;68471.81;;;15.26;81.09
24746;BME280;12845;52.042;6.838;2022-07-29T06:20:40;68439.53;;;14.99;82.27
24746;BME280;12845;52.042;6.838;2022-07-29T06:25:31;68433.25;;;14.94;83.92
24746;BME280;12845;52.042;6.838;2022-07-29T06:30:29;68420.75;;;14.82;85.33
24746;BME280;12845;52.042;6.838;2022-07-29T06:32:54;68434.97;;;14.95;85.13
24746;BME280;12845;52.042;6.838;2022-07-29T06:35:20;68422.22;;;14.88;85.24
24746;BME280;12845;52.042;6.838;2022-07-29T06:37:46;68438.03;;;14.93;84.35
24746;BME280;12845;52.042;6.838;2022-07-29T06:40:11;68435.31;;;15.00;84.60
24746;BME280;12845;52.042;6.838;2022-07-29T06:42:55;68435.88;;;15.01;85.74
24746;BME280;12845;52.042;6.838;2022-07-29T06:50:11;68408.59;;;14.69;87.84
24746;BME280;12845;52.042;6.838;2022-07-29T06:55:03;68406.91;;;14.68;88.16
24746;BME280;12845;52.042;6.838;2022-07-29T07:02:22;68412.53;;;14.80;88.64
24746;BME280;12845;52.042;6.838;2022-07-29T07:07:12;68407.66;;;14.71;89.19
24746;BME280;12845;52.042;6.838;2022-07-29T07:12:03;68409.84;;;14.80;88.81
24746;BME280;12845;52.042;6.838;2022-07-29T07:16:54;68411.06;;;14.74;88.81
24746;BME280;12845;52.042;6.838;2022-07-29T07:19:19;68419.03;;;14.81;89.65
24746;BME280;12845;52.042;6.838;2022-07-29T07:21:45;68414.81;;;14.82;90.95
24746;BME280;12845;52.042;6.838;2022-07-29T07:24:10;68416.75;;;14.79;90.32
24746;BME280;12845;52.042;6.838;2022-07-29T07:26:36;68422.44;;;14.84;92.41
24746;BME280;12845;52.042;6.838;2022-07-29T07:29:01;68419.03;;;14.81;93.03
24746;BME280;12845;52.042;6.838;2022-07-29T07:31:26;68397.72;;;14.66;94.20
24746;BME280;12845;52.042;6.838;2022-07-29T07:33:52;68402.50;;;14.66;95.38
24746;BME280;12845;52.042;6.838;2022-07-29T07:38:44;68396.25;;;14.60;94.69
24746;BME280;12845;52.042;6.838;2022-07-29T07:41:09;68400.22;;;14.64;94.20
24746;BME280;12845;52.042;6.838;2022-07-29T07:43:34;68398.88;;;14.68;92.91
24746;BME280;12845;52.042;6.838;2022-07-29T07:50:50;68409.91;;;14.73;92.44
24746;BME280;12845;52.042;6.838;2022-07-29T07:53:16;68401.38;;;14.65;92.83
24746;BME280;12845;52.042;6.838;2022-07-29T07:58:08;68396.25;;;14.60;94.01
24746;BME280;12845;52.042;6.838;2022-07-29T08:00:34;68413.91;;;14.76;93.58
24746;BME280;12845;52.042;6.838;2022-07-29T08:02:59;68429.84;;;14.91;93.41
24746;BME280;12845;52.042;6.838;2022-07-29T08:05:25;68431.31;;;14.97;93.53
24746;BME280;12845;52.042;6.838;2022-07-29T08:10:17;68428.47;;;14.94;95.05
24746;BME280;12845;52.042;6.838;2022-07-29T08:17:52;68449.44;;;15.03;94.38
24746;BME280;12845;52.042;6.838;2022-07-29T08:22:43;68429.59;;;14.95;93.96
24746;BME280;12845;52.042;6.838;2022-07-29T08:25:08;68435.94;;;14.94;94.72
24746;BME280;12845;52.042;6.838;2022-07-29T08:27:34;68436.69;;;14.97;93.95
24746;BME280;12845;52.042;6.838;2022-07-29T08:29:59;68447.25;;;15.11;94.15
24746;BME280;12845;52.042;6.838;2022-07-29T08:34:50;68464.34;;;15.26;93.77
24746;BME280;12845;52.042;6.838;2022-07-29T08:37:15;68464.91;;;15.27;92.48
24746;BME280;12845;52.042;6.838;2022-07-29T08:39:40;68469.13;;;15.26;92.31
24746;BME280;12845;52.042;6.838;2022-07-29T08:59:08;68482.22;;;15.38;93.31
24746;BME280;12845;52.042;6.838;2022-07-29T09:01:37;68481.09;;;15.37;92.82
24746;BME280;12845;52.042;6.838;2022-07-29T09:04:04;68460.34;;;15.23;93.75
24746;BME280;12845;52.042;6.838;2022-07-29T09:08:59;68436.44;;;15.01;95.70
24746;BME280;12845;52.042;6.838;2022-07-29T09:11:25;68441.63;;;14.99;96.57
24746;BME280;12845;52.042;6.838;2022-07-29T09:13:51;68439.53;;;14.99;97.19
24746;BME280;12845;52.042;6.838;2022-07-29T09:16:16;68444.06;;;15.03;98.35
24746;BME280;12845;52.042;6.838;2022-07-29T09:18:44;68454.31;;;15.12;99.85
24746;BME280;12845;52.042;6.838;2022-07-29T09:21:12;68450.34;;;15.09;97.37
24746;BME280;12845;52.042;6.838;2022-07-29T09:26:30;68432.44;;;14.98;98.19
24746;BME280;12845;52.042;6.838;2022-07-29T09:28:57;68441.22;;;15.01;99.00
24746;BME280;12845;52.042;6.838;2022-07-29T09:34:00;68450.34;;;15.09;100.00
24746;BME280;12845;52.042;6.838;2022-07-29T09:36:26;68438.38;;;14.98;100.00
24746;BME280;12845;52.042;6.838;2022-07-29T09:39:01;68429.25;;;14.90;100.00
24746;BME280;12845;52.042;6.838;2022-07-29T09:48:44;68434.78;;;14.93;100.00
24746;BME280;12845;52.042;6.838;2022-07-29T09:51:20;68433.00;;;14.98;100.00
24746;BME280;12845;52.042;6.838;2022-07-29T09:53:46;68451.47;;;15.10;100.00
24746;BME280;12845;52.042;6.838;2022-07-29T09:56:11;68439.53;;;14.99;100.00
24746;BME280;12845;52.042;6.838;2022-07-29T09:58:36;68440.44;;;15.05;100.00
24746;BME280;12845;52.042;6.838;2022-07-29T10:01:02;68462.88;;;15.20;100.00
24746;BME280;12845;52.042;6.838;2022-07-29T10:03:28;68438.38;;;14.98;100.00
24746;BME280;12845;52.042;6.838;2022-07-29T10:06:10;68430.41;;;14.91;100.00
24746;BME280;12845;52.042;6.838;2022-07-29T10:08:37;68453.97;;;15.07;100.00
24746;BME280;12845;52.042;6.838;2022-07-29T10:11:12;68450.34;;;15.09;100.00
24746;BME280;12845;52.042;6.838;2022-07-29T10:13:38;68443.50;;;15.03;100.00
24746;BME280;12845;52.042;6.838;2022-07-29T10:16:04;68437.25;;;14.97;100.00
24746;BME280;12845;52.042;6.838;2022-07-29T10:20:56;68463.44;;;15.21;100.00
24746;BME280;12845;52.042;6.838;2022-07-29T10:23:23;68470.53;;;15.22;100.00
24746;BME280;12845;52.042;6.838;2022-07-29T10:25:49;68482.81;;;15.38;100.00
24746;BME280;12845;52.042;6.838;2022-07-29T10:33:37;68496.88;;;15.48;100.00
24746;BME280;12845;52.042;6.838;2022-07-29T10:41:59;68498.75;;;15.52;100.00
24746;BME280;12845;52.042;6.838;2022-07-29T10:44:27;68498.75;;;15.52;100.00
24746;BME280;12845;52.042;6.838;2022-07-29T10:49:21;68515.69;;;15.65;100.00
24746;BME280;12845;52.042;6.838;2022-07-29T10:54:19;68512.25;;;15.62;100.00
24746;BME280;12845;52.042;6.838;2022-07-29T10:57:30;68509.00;;;15.62;100.00
24746;BME280;12845;52.042;6.838;2022-07-29T11:07:29;68508.44;;;15.61;100.00
24746;BME280;12845;52.042;6.838;2022-07-29T11:15:05;68499.09;;;15.57;100.00
24746;BME280;12845;52.042;6.838;2022-07-29T11:34:25;68518.16;;;15.70;100.00
24746;BME280;12845;52.042;6.838;2022-07-29T11:49:55;68542.09;;;15.91;100.00
24746;BME280;12845;52.042;6.838;2022-07-29T11:54:49;68566.00;;;16.13;100.00
24746;BME280;12845;52.042;6.838;2022-07-29T11:57:17;68567.16;;;16.14;100.00
24746;BME280;12845;52.042;6.838;2022-07-29T12:02:09;68605.09;;;16.53;100.00
24746;BME280;12845;52.042;6.838;2022-07-29T12:04:55;68632.47;;;16.77;100.00
24746;BME280;12845;52.042;6.838;2022-07-29T12:09:53;68686.66;;;17.26;100.00
24746;BME280;12845;52.042;6.838;2022-07-29T12:14:45;68778.53;;;18.08;100.00
24746;BME280;12845;52.042;6.838;2022-07-29T12:19:52;68810.50;;;18.37;94.95
24746;BME280;12845;52.042;6.838;2022-07-29T12:22:28;68815.91;;;18.37;94.98
24746;BME280;12845;52.042;6.838;2022-07-29T12:27:20;68844.78;;;18.67;91.09
24746;BME280;12845;52.042;6.838;2022-07-29T12:34:45;68881.34;;;19.00;88.10
24746;BME280;12845;52.042;6.838;2022-07-29T12:37:11;68872.75;;;18.92;88.38
24746;BME280;12845;52.042;6.838;2022-07-29T12:39:36;68879.22;;;19.01;88.68
24746;BME280;12845;52.042;6.838;2022-07-29T12:44:49;68893.59;;;19.06;85.60
24746;BME280;12845;52.042;6.838;2022-07-29T12:49:40;68929.66;;;19.48;85.78
24746;BME280;12845;52.042;6.838;2022-07-29T12:54:50;68973.59;;;19.78;84.98
24746;BME280;12845;52.042;6.838;2022-07-29T12:57:15;69005.34;;;20.11;81.61
24746;BME280;12845;52.042;6.838;2022-07-29T12:59:41;69007.63;;;20.13;79.74
24746;BME280;12845;52.042;6.838;2022-07-29T13:02:06;69043.63;;;20.45;81.77
24746;BME280;12845;52.042;6.838;2022-07-29T13:04:33;69026.50;;;20.30;77.66
24746;BME280;12845;52.042;6.838;2022-07-29T13:07:06;69031.09;;;20.34;76.82
24746;BME280;12845;52.042;6.838;2022-07-29T13:09:37;69035.66;;;20.38;78.39
24746;BME280;12845;52.042;6.838;2022-07-29T13:12:10;69058.13;;;20.61;78.59
24746;BME280;12845;52.042;6.838;2022-07-29T13:14:44;69097.56;;;20.96;74.90
24746;BME280;12845;52.042;6.838;2022-07-29T13:17:18;69126.59;;;21.19;71.80
24746;BME280;12845;52.042;6.838;2022-07-29T13:19:48;69111.44;;;21.11;71.85
24746;BME280;12845;52.042;6.838;2022-07-29T13:22:23;69147.50;;;21.43;73.18
24746;BME280;12845;52.042;6.838;2022-07-29T13:24:53;69161.09;;;21.53;73.05
24746;BME280;12845;52.042;6.838;2022-07-29T13:27:20;69191.25;;;21.77;70.68
24746;BME280;12845;52.042;6.838;2022-07-29T13:29:46;69164.38;;;21.53;68.56
24746;BME280;12845;52.042;6.838;2022-07-29T13:32:12;69204.72;;;21.84;70.70
24746;BME280;12845;52.042;6.838;2022-07-29T13:37:03;69208.44;;;21.93;66.88
24746;BME280;12845;52.042;6.838;2022-07-29T13:41:55;69224.59;;;22.09;67.56
24746;BME280;12845;52.042;6.838;2022-07-29T13:44:21;69254.84;;;22.34;65.05
24746;BME280;12845;52.042;6.838;2022-07-29T13:46:46;69255.97;;;22.35;67.59
24746;BME280;12845;52.042;6.838;2022-07-29T13:49:11;69269.88;;;22.50;64.30
24746;BME280;12845;52.042;6.838;2022-07-29T13:51:37;69291.47;;;22.67;65.69
24746;BME280;12845;52.042;6.838;2022-07-29T13:54:03;69307.50;;;22.81;62.23
24746;BME280;12845;52.042;6.838;2022-07-29T14:01:19;69359.66;;;23.28;65.30
24746;BME280;12845;52.042;6.838;2022-07-29T14:03:45;69415.41;;;23.80;59.24
24746;BME280;12845;52.042;6.838;2022-07-29T14:06:10;69378.72;;;23.47;60.03
24746;BME280;12845;52.042;6.838;2022-07-29T14:08:35;69384.44;;;23.52;59.60
24746;BME280;12845;52.042;6.838;2022-07-29T14:11:01;69419.28;;;23.81;62.47
24746;BME280;12845;52.042;6.838;2022-07-29T14:13:26;69412.56;;;23.77;57.14
24746;BME280;12845;52.042;6.838;2022-07-29T14:15:52;69457.25;;;24.17;59.60
24746;BME280;12845;52.042;6.838;2022-07-29T14:18:18;69470.88;;;24.27;59.75
24746;BME280;12845;52.042;6.838;2022-07-29T14:20:43;69455.94;;;24.14;56.64
24746;BME280;12845;52.042;6.838;2022-07-29T14:23:08;69472.16;;;24.30;59.42
24746;BME280;12845;52.042;6.838;2022-07-29T14:25:34;69458.25;;;24.16;56.83
24746;BME280;12845;52.042;6.838;2022-07-29T14:27:59;69492.81;;;24.49;56.93
24746;BME280;12845;52.042;6.838;2022-07-29T14:30:25;69538.53;;;24.87;56.06
24746;BME280;12845;52.042;6.838;2022-07-29T14:32:50;69508.16;;;24.60;55.31
24746;BME280;12845;52.042;6.838;2022-07-29T14:37:41;69559.19;;;25.06;55.08
24746;BME280;12845;52.042;6.838;2022-07-29T14:40:08;69531.09;;;24.81;52.45
24746;BME280;12845;52.042;6.838;2022-07-29T14:42:33;69559.47;;;25.11;53.66
24746;BME280;12845;52.042;6.838;2022-07-29T14:44:59;69548.28;;;24.96;53.62
24746;BME280;12845;52.042;6.838;2022-07-29T14:47:24;69571.41;;;25.19;54.74
24746;BME280;12845;52.042;6.838;2022-07-29T14:49:50;69587.31;;;25.31;54.67
24746;BME280;12845;52.042;6.838;2022-07-29T14:52:15;69600.81;;;25.48;55.13
24746;BME280;12845;52.042;6.838;2022-07-29T14:54:40;69622.31;;;25.62;50.56
24746;BME280;12845;52.042;6.838;2022-07-29T14:57:06;69641.41;;;25.81;51.39
24746;BME280;12845;52.042;6.838;2022-07-29T14:59:31;69654.06;;;25.93;49.96
24746;BME280;12845;52.042;6.838;2022-07-29T15:01:57;69657.94;;;25.94;50.25
24746;BME280;12845;52.042;6.838;2022-07-29T15:04:22;69674.00;;;26.08;50.49
24746;BME280;12845;52.042;6.838;2022-07-29T15:06:48;69659.66;;;25.95;52.58
24746;BME280;12845;52.042;6.838;2022-07-29T15:09:13;69673.44;;;26.07;50.07
24746;BME280;12845;52.042;6.838;2022-07-29T15:11:39;69690.06;;;26.22;51.17
24746;BME280;12845;52.042;6.838;2022-07-29T15:14:05;69690.66;;;26.23;51.47
24746;BME280;12845;52.042;6.838;2022-07-29T15:16:30;69682.75;;;26.18;50.93
24746;BME280;12845;52.042;6.838;2022-07-29T15:18:56;69685.03;;;26.20;51.43
24746;BME280;12845;52.042;6.838;2022-07-29T15:21:23;69706.28;;;26.39;48.32
24746;BME280;12845;52.042;6.838;2022-07-29T15:23:48;69725.69;;;26.54;49.77
24746;BME280;12845;52.042;6.838;2022-07-29T15:26:14;69711.91;;;26.42;50.70
24746;BME280;12845;52.042;6.838;2022-07-29T15:28:39;69733.72;;;26.61;51.05
24746;BME280;12845;52.042;6.838;2022-07-29T15:31:05;69711.44;;;26.44;50.56
24746;BME280;12845;52.042;6.838;2022-07-29T15:33:30;69704.84;;;26.43;48.93
24746;BME280;12845;52.042;6.838;2022-07-29T15:35:56;69637.25;;;25.75;51.14
24746;BME280;12845;52.042;6.838;2022-07-29T15:38:21;69652.91;;;25.92;50.30
24746;BME280;12845;52.042;6.838;2022-07-29T15:40:46;69709.31;;;26.44;50.60
24746;BME280;12845;52.042;6.838;2022-07-29T15:43:12;69693.81;;;26.30;49.09
24746;BME280;12845;52.042;6.838;2022-07-29T15:45:39;69679.44;;;26.18;49.72
24746;BME280;12845;52.042;6.838;2022-07-29T15:48:06;69703.84;;;26.34;51.25
24746;BME280;12845;52.042;6.838;2022-07-29T15:50:32;69724.09;;;26.55;50.32
24746;BME280;12845;52.042;6.838;2022-07-29T15:52:58;69691.78;;;26.24;48.70
24746;BME280;12845;52.042;6.838;2022-07-29T15:55:23;69675.84;;;26.12;51.44
24746;BME280;12845;52.042;6.838;2022-07-29T15:57:49;69714.88;;;26.47;49.71
24746;BME280;12845;52.042;6.838;2022-07-29T16:00:15;69718.78;;;26.48;48.75
24746;BME280;12845;52.042;6.838;2022-07-29T16:02:42;69699.53;;;26.36;50.98
24746;BME280;12845;52.042;6.838;2022-07-29T16:05:07;69716.47;;;26.46;49.87
24746;BME280;12845;52.042;6.838;2022-07-29T16:07:33;69720.81;;;26.54;50.70
24746;BME280;12845;52.042;6.838;2022-07-29T16:09:59;69721.94;;;26.55;49.74
24746;BME280;12845;52.042;6.838;2022-07-29T16:12:24;69722.69;;;26.59;47.51
24746;BME280;12845;52.042;6.838;2022-07-29T16:14:50;69708.16;;;26.43;49.15
24746;BME280;12845;52.042;6.838;2022-07-29T16:17:16;69723.38;;;26.52;49.58
24746;BME280;12845;52.042;6.838;2022-07-29T16:19:42;69710.31;;;26.43;48.60
24746;BME280;12845;52.042;6.838;2022-07-29T16:22:07;69674.28;;;26.13;49.89
24746;BME280;12845;52.042;6.838;2022-07-29T16:24:33;69624.91;;;25.69;50.04
24746;BME280;12845;52.042;6.838;2022-07-29T16:26:58;69651.75;;;25.91;50.70
24746;BME280;12845;52.042;6.838;2022-07-29T16:29:23;69670.56;;;26.05;52.04
24746;BME280;12845;52.042;6.838;2022-07-29T16:31:49;69662.50;;;25.98;49.85
24746;BME280;12845;52.042;6.838;2022-07-29T16:34:14;69644.31;;;25.84;51.09
24746;BME280;12845;52.042;6.838;2022-07-29T16:36:39;69664.81;;;26.00;49.73
24746;BME280;12845;52.042;6.838;2022-07-29T16:39:05;69665.09;;;26.05;50.71
24746;BME280;12845;52.042;6.838;2022-07-29T16:41:31;69676.44;;;26.13;47.70
24746;BME280;12845;52.042;6.838;2022-07-29T16:43:56;69687.50;;;26.25;50.94
24746;BME280;12845;52.042;6.838;2022-07-29T16:46:21;69709.88;;;26.45;51.14
24746;BME280;12845;52.042;6.838;2022-07-29T16:48:47;69716.34;;;26.53;49.58
24746;BME280;12845;52.042;6.838;2022-07-29T16:51:12;69709.16;;;26.42;48.01
24746;BME280;12845;52.042;6.838;2022-07-29T16:53:38;69687.34;;;26.22;49.26
24746;BME280;12845;52.042;6.838;2022-07-29T16:56:03;69699.97;;;26.33;48.05
24746;BME280;12845;52.042;6.838;2022-07-29T16:58:29;69696.53;;;26.30;48.41
24746;BME280;12845;52.042;6.838;2022-07-29T17:00:54;69692.94;;;26.25;47.85
24746;BME280;12845;52.042;6.838;2022-07-29T17:03:20;69706.44;;;26.42;47.07
24746;BME280;12845;52.042;6.838;2022-07-29T17:05:45;69683.19;;;26.16;47.62
24746;BME280;12845;52.042;6.838;2022-07-29T17:08:11;69673.56;;;26.10;47.76
24746;BME280;12845;52.042;6.838;2022-07-29T17:10:37;69686.78;;;26.22;46.59
24746;BME280;12845;52.042;6.838;2022-07-29T17:13:02;69653.63;;;25.95;45.94
24746;BME280;12845;52.042;6.838;2022-07-29T17:15:28;69633.38;;;25.74;47.56
24746;BME280;12845;52.042;6.838;2022-07-29T17:17:53;69649.59;;;25.91;48.69
24746;BME280;12845;52.042;6.838;2022-07-29T17:20:19;69659.34;;;26.00;48.06
24746;BME280;12845;52.042;6.838;2022-07-29T17:22:44;69649.19;;;25.93;46.75
24746;BME280;12845;52.042;6.838;2022-07-29T17:25:10;69686.91;;;26.24;46.70
24746;BME280;12845;52.042;6.838;2022-07-29T17:27:35;69686.63;;;26.19;45.68
24746;BME280;12845;52.042;6.838;2022-07-29T17:30:01;69672.28;;;26.06;46.22
24746;BME280;12845;52.042;6.838;2022-07-29T17:32:27;69660.22;;;25.96;46.38
24746;BME280;12845;52.042;6.838;2022-07-29T17:34:52;69624.91;;;25.69;46.94
24746;BME280;12845;52.042;6.838;2022-07-29T17:37:18;69611.56;;;25.55;47.02
24746;BME280;12845;52.042;6.838;2022-07-29T17:39:43;69630.94;;;25.70;46.13
24746;BME280;12845;52.042;6.838;2022-07-29T17:42:11;69633.94;;;25.75;47.03
24746;BME280;12845;52.042;6.838;2022-07-29T17:44:37;69620.03;;;25.60;48.31
24746;BME280;12845;52.042;6.838;2022-07-29T17:47:04;69601.94;;;25.49;47.09
24746;BME280;12845;52.042;6.838;2022-07-29T17:49:29;69597.06;;;25.39;48.14
24746;BME280;12845;52.042;6.838;2022-07-29T17:51:55;69599.66;;;25.47;48.59
24746;BME280;12845;52.042;6.838;2022-07-29T17:54:20;69595.50;;;25.40;49.00
24746;BME280;12845;52.042;6.838;2022-07-29T17:56:46;69587.03;;;25.35;47.90
24746;BME280;12845;52.042;6.838;2022-07-29T17:59:11;69563.78;;;25.10;47.32
24746;BME280;12845;52.042;6.838;2022-07-29T18:01:39;69550.59;;;24.98;49.04
24746;BME280;12845;52.042;6.838;2022-07-29T18:04:06;69540.41;;;24.91;50.01
24746;BME280;12845;52.042;6.838;2022-07-29T18:06:31;69525.66;;;24.81;49.29
24746;BME280;12845;52.042;6.838;2022-07-29T18:08:56;69523.63;;;24.74;50.74
24746;BME280;12845;52.042;6.838;2022-07-29T18:11:22;69511.59;;;24.63;50.32
24746;BME280;12845;52.042;6.838;2022-07-29T18:13:47;69507.00;;;24.59;50.14